createdAt,value
2022-10-15T00:02:54.890Z,0.25
2022-10-15T00:05:56.519Z,0.20
2022-10-15T00:08:58.115Z,0.30
2022-10-15T00:11:59.700Z,0.30
2022-10-15T00:15:01.205Z,0.30
2022-10-15T00:18:02.796Z,0.25
2022-10-15T00:21:09.685Z,0.30
2022-10-15T00:24:11.254Z,0.20
2022-10-15T00:27:12.772Z,0.30
2022-10-15T00:30:14.357Z,0.43
2022-10-15T00:33:15.912Z,0.25
2022-10-15T00:36:23.516Z,0.38
2022-10-15T00:39:25.156Z,0.20
2022-10-15T00:42:26.806Z,0.30
2022-10-15T00:45:28.455Z,0.32
2022-10-15T00:48:31.692Z,0.30
2022-10-15T00:51:40.941Z,0.20
2022-10-15T00:54:49.672Z,0.20
2022-10-15T00:57:51.690Z,0.20
2022-10-15T01:00:54.345Z,0.30
2022-10-15T01:03:55.997Z,0.30
2022-10-15T01:06:57.930Z,0.30
2022-10-15T01:10:00.523Z,0.22
2022-10-15T01:13:15.366Z,0.20
2022-10-15T01:16:30.145Z,0.30
2022-10-15T01:19:56.615Z,0.30
2022-10-15T01:23:25.208Z,0.20
2022-10-15T01:26:40.303Z,0.25
2022-10-15T01:29:47.820Z,0.20
2022-10-15T01:33:16.441Z,0.20
2022-10-15T01:36:46.949Z,0.22
2022-10-15T01:39:57.628Z,0.28
2022-10-15T01:43:12.060Z,0.20
2022-10-15T01:46:32.184Z,0.20
2022-10-15T01:49:41.588Z,0.20
2022-10-15T01:52:44.888Z,0.20
2022-10-15T01:55:48.634Z,0.30
2022-10-15T01:58:53.478Z,0.30
2022-10-15T02:01:57.887Z,0.20
2022-10-15T02:04:59.816Z,0.20
2022-10-15T02:08:22.159Z,0.20
2022-10-15T02:11:23.783Z,0.30
2022-10-15T02:14:35.058Z,0.50
2022-10-15T02:17:48.901Z,0.40
2022-10-15T02:21:02.843Z,0.30
2022-10-15T02:24:14.977Z,0.32
2022-10-15T02:27:16.888Z,0.30
2022-10-15T02:30:19.256Z,0.30
2022-10-15T02:33:22.693Z,0.30
2022-10-15T02:36:24.512Z,0.30
2022-10-15T02:39:26.271Z,0.40
2022-10-15T02:42:28.210Z,0.30
2022-10-15T02:45:29.781Z,0.30
2022-10-15T02:48:31.300Z,0.30
2022-10-15T02:51:34.379Z,0.35
2022-10-15T02:54:35.927Z,0.35
2022-10-15T02:57:37.524Z,0.40
2022-10-15T03:00:39.297Z,0.55
2022-10-15T03:03:40.857Z,0.47
2022-10-15T03:06:42.568Z,0.30
2022-10-15T03:09:44.110Z,0.40
2022-10-15T03:12:45.641Z,0.30
2022-10-15T03:15:47.180Z,0.35
2022-10-15T03:18:48.731Z,0.55
2022-10-15T03:21:50.237Z,0.50
2022-10-15T03:24:51.751Z,0.40
2022-10-15T03:27:53.293Z,0.30
2022-10-15T03:30:54.864Z,0.30
2022-10-15T03:33:56.847Z,0.35
2022-10-15T03:36:58.384Z,0.22
2022-10-15T03:39:59.904Z,0.38
2022-10-15T03:43:01.451Z,0.40
2022-10-15T03:46:04.282Z,0.30
2022-10-15T03:49:05.782Z,0.47
2022-10-15T03:52:07.641Z,0.50
2022-10-15T03:55:10.757Z,0.50
2022-10-15T03:58:12.300Z,0.40
2022-10-15T04:01:18.060Z,0.40
2022-10-15T04:04:19.903Z,0.40
2022-10-15T04:07:21.871Z,0.40
2022-10-15T04:10:23.562Z,0.35
2022-10-15T04:13:26.080Z,0.47
2022-10-15T04:16:27.616Z,0.38
2022-10-15T04:19:29.156Z,0.30
2022-10-15T04:22:30.652Z,0.40
2022-10-15T04:25:32.206Z,0.30
2022-10-15T04:28:33.782Z,0.30
2022-10-15T04:31:35.568Z,0.40
2022-10-15T04:34:37.092Z,0.30
2022-10-15T04:37:38.625Z,0.40
2022-10-15T04:40:41.184Z,0.35
2022-10-15T04:43:42.706Z,0.43
2022-10-15T04:46:44.326Z,0.30
2022-10-15T04:49:45.886Z,0.47
2022-10-15T04:52:48.582Z,0.40
2022-10-15T04:55:50.133Z,0.50
2022-10-15T04:58:51.720Z,0.55
2022-10-15T05:01:53.288Z,0.50
2022-10-15T05:04:55.074Z,0.57
2022-10-15T05:08:00.353Z,0.50
2022-10-15T05:11:07.080Z,0.40
2022-10-15T05:14:09.186Z,0.40
2022-10-15T05:17:10.722Z,0.38
2022-10-15T05:20:12.238Z,0.40
2022-10-15T05:23:13.962Z,0.35
2022-10-15T05:26:18.357Z,0.35
2022-10-15T05:29:20.052Z,0.30
2022-10-15T05:35:25.903Z,0.47
2022-10-15T05:38:27.440Z,0.52
2022-10-15T05:41:29.669Z,0.40
2022-10-15T05:44:31.180Z,0.60
2022-10-15T05:47:32.725Z,0.30
2022-10-15T05:50:34.268Z,0.40
2022-10-15T05:53:36.575Z,0.40
2022-10-15T05:56:38.153Z,0.30
2022-10-15T05:59:39.661Z,0.82
2022-10-15T06:02:41.340Z,0.68
2022-10-15T06:05:42.909Z,0.40
2022-10-15T06:08:44.972Z,0.40
2022-10-15T06:11:47.117Z,0.40
2022-10-15T06:14:48.652Z,0.30
2022-10-15T06:17:53.362Z,0.50
2022-10-15T06:20:54.953Z,0.40
2022-10-15T06:23:56.592Z,0.32
2022-10-15T06:26:59.952Z,0.30
2022-10-15T06:30:01.613Z,0.30
2022-10-15T06:33:03.546Z,0.40
2022-10-15T06:36:07.678Z,0.45
2022-10-15T06:39:09.465Z,0.30
2022-10-15T06:42:10.980Z,0.40
2022-10-15T06:45:13.429Z,0.30
2022-10-15T06:48:15.652Z,0.50
2022-10-15T06:51:17.481Z,0.40
2022-10-15T06:54:18.973Z,0.40
2022-10-15T06:57:20.592Z,0.47
2022-10-15T07:00:23.102Z,0.32
2022-10-15T07:03:24.705Z,0.43
2022-10-15T07:06:26.305Z,0.50
2022-10-15T07:09:27.946Z,0.40
2022-10-15T07:12:29.450Z,0.40
2022-10-15T07:15:30.996Z,0.50
2022-10-15T07:18:32.989Z,0.40
2022-10-15T07:21:34.581Z,0.32
2022-10-15T07:24:36.368Z,0.50
2022-10-15T07:27:41.512Z,0.40
2022-10-15T07:30:43.167Z,0.38
2022-10-15T07:33:44.772Z,0.45
2022-10-15T07:36:46.271Z,0.40
2022-10-15T07:39:47.961Z,0.40
2022-10-15T07:42:54.291Z,0.40
2022-10-15T07:45:56.136Z,0.40
2022-10-15T07:48:57.680Z,0.38
2022-10-15T07:51:59.457Z,0.40
2022-10-15T07:55:01.002Z,0.30
2022-10-15T07:58:03.934Z,0.40
2022-10-15T08:01:06.576Z,0.40
2022-10-15T08:04:08.093Z,0.45
2022-10-15T08:07:10.417Z,0.30
2022-10-15T08:10:13.433Z,0.40
2022-10-15T08:13:15.046Z,0.30
2022-10-15T08:16:19.530Z,0.50
2022-10-15T08:19:21.066Z,0.40
2022-10-15T08:22:22.742Z,0.30
2022-10-15T08:25:25.041Z,0.25
2022-10-15T08:28:27.926Z,0.43
2022-10-15T08:31:29.512Z,0.45
2022-10-15T08:34:31.136Z,0.30
2022-10-15T08:37:32.733Z,0.47
2022-10-15T08:40:34.400Z,0.32
2022-10-15T08:43:40.248Z,0.40
2022-10-15T08:46:46.305Z,0.30
2022-10-15T08:49:51.972Z,0.20
2022-10-15T08:52:54.510Z,0.30
2022-10-15T08:56:03.426Z,0.30
2022-10-15T08:59:26.589Z,0.30
2022-10-15T09:02:38.282Z,0.40
2022-10-15T09:05:58.117Z,0.50
2022-10-15T09:09:18.049Z,0.30
2022-10-15T09:12:31.691Z,0.30
2022-10-15T09:15:41.163Z,0.30
2022-10-15T09:18:46.604Z,0.30
2022-10-15T09:21:50.982Z,0.30
2022-10-15T09:24:53.702Z,0.30
2022-10-15T09:27:56.708Z,0.35
2022-10-15T09:30:59.797Z,0.30
2022-10-15T09:34:14.893Z,0.30
2022-10-15T09:37:48.703Z,0.30
2022-10-15T09:41:26.683Z,0.30
2022-10-15T09:44:36.672Z,0.25
2022-10-15T09:47:41.091Z,0.30
2022-10-15T09:50:56.888Z,0.40
2022-10-15T09:54:15.349Z,0.40
2022-10-15T09:57:19.664Z,0.40
2022-10-15T10:00:21.326Z,0.40
2022-10-15T10:03:25.908Z,0.43
2022-10-15T10:06:27.461Z,1.02
2022-10-15T10:09:33.443Z,0.55
2022-10-15T10:12:36.459Z,0.40
2022-10-15T10:15:42.116Z,0.40
2022-10-15T10:18:51.005Z,0.30
2022-10-15T10:22:14.797Z,0.30
2022-10-15T10:25:27.771Z,0.30
2022-10-15T10:28:34.735Z,0.50
2022-10-15T10:31:42.575Z,0.20
2022-10-15T10:34:48.719Z,0.30
2022-10-15T10:37:53.945Z,0.38
2022-10-15T10:41:09.605Z,0.50
2022-10-15T10:44:22.907Z,0.30
2022-10-15T10:47:27.057Z,0.40
2022-10-15T10:50:33.049Z,0.30
2022-10-15T10:53:39.921Z,0.20
2022-10-15T10:56:44.207Z,0.40
2022-10-15T10:59:53.856Z,0.30
2022-10-15T11:02:57.139Z,0.93
2022-10-15T11:06:07.843Z,0.40
2022-10-15T11:09:47.957Z,0.30
2022-10-15T11:13:12.739Z,0.32
2022-10-15T11:17:06.623Z,0.35
2022-10-15T11:20:44.237Z,0.30
2022-10-15T11:23:51.811Z,0.30
2022-10-15T11:27:21.236Z,0.20
2022-10-15T11:30:56.545Z,0.40
2022-10-15T11:34:04.006Z,0.40
2022-10-15T11:37:23.476Z,0.20
2022-10-15T11:40:44.033Z,0.40
2022-10-15T11:44:21.953Z,0.20
2022-10-15T11:47:35.295Z,0.20
2022-10-15T11:50:47.620Z,0.40
2022-10-15T11:54:01.480Z,0.50
2022-10-15T11:57:05.088Z,0.60
2022-10-15T12:00:34.260Z,0.40
2022-10-15T12:03:51.313Z,0.30
2022-10-15T12:06:57.069Z,0.70
2022-10-15T12:10:09.913Z,0.47
2022-10-15T12:13:26.018Z,0.50
2022-10-15T12:16:40.983Z,0.40
2022-10-15T12:20:29.019Z,0.50
2022-10-15T12:23:36.658Z,0.47
2022-10-15T12:26:38.321Z,0.57
2022-10-15T12:29:39.888Z,0.40
2022-10-15T12:32:46.556Z,0.40
2022-10-15T12:35:56.838Z,0.40
2022-10-15T12:39:05.897Z,0.70
2022-10-15T12:42:31.108Z,0.43
2022-10-15T12:45:40.444Z,0.40
2022-10-15T12:48:46.877Z,0.50
2022-10-15T12:51:51.512Z,0.50
2022-10-15T12:55:26.332Z,0.32
2022-10-15T12:58:37.109Z,0.38
2022-10-15T13:01:44.589Z,0.40
2022-10-15T13:04:47.100Z,0.30
2022-10-15T13:07:49.191Z,0.30
2022-10-15T13:10:57.960Z,0.28
2022-10-15T13:14:02.500Z,0.35
2022-10-15T13:17:15.744Z,0.30
2022-10-15T13:20:34.665Z,0.20
2022-10-15T13:23:36.236Z,0.40
2022-10-15T13:26:37.768Z,0.15
2022-10-15T13:29:39.389Z,0.30
2022-10-15T13:32:48.147Z,0.30
2022-10-15T13:35:49.726Z,0.20
2022-10-15T13:38:54.288Z,0.20
2022-10-15T13:42:17.037Z,0.25
2022-10-15T13:45:18.768Z,0.30
2022-10-15T13:48:32.515Z,0.30
2022-10-15T13:51:43.702Z,0.20
2022-10-15T13:54:47.003Z,0.20
2022-10-15T13:57:50.060Z,0.30
2022-10-15T14:00:58.240Z,0.28
2022-10-15T14:04:01.832Z,0.30
2022-10-15T14:07:21.092Z,0.30
2022-10-15T14:10:22.733Z,0.25
2022-10-15T14:13:24.587Z,0.30
2022-10-15T14:16:31.425Z,0.28
2022-10-15T14:19:35.617Z,0.20
2022-10-15T14:22:37.195Z,0.20
2022-10-15T14:25:38.738Z,0.30
2022-10-15T14:28:41.616Z,0.22
2022-10-15T14:31:47.285Z,0.30
2022-10-15T14:34:49.725Z,0.20
2022-10-15T14:38:25.724Z,0.30
2022-10-15T14:41:32.344Z,0.30
2022-10-15T14:44:48.164Z,0.30
2022-10-15T14:47:59.104Z,0.30
2022-10-15T14:51:05.768Z,0.30
2022-10-15T14:54:19.047Z,0.25
2022-10-15T14:57:25.262Z,0.30
2022-10-15T15:00:33.755Z,0.20
2022-10-15T15:03:41.194Z,0.20
2022-10-15T15:06:42.719Z,0.30
2022-10-15T15:09:48.008Z,0.30
2022-10-15T15:12:53.039Z,0.20
2022-10-15T15:15:54.803Z,0.20
2022-10-15T15:18:58.335Z,0.20
2022-10-15T15:21:59.916Z,0.30
2022-10-15T15:25:06.933Z,0.35
2022-10-15T15:28:17.088Z,0.22
2022-10-15T15:31:19.128Z,0.20
2022-10-15T15:34:20.672Z,0.30
2022-10-15T15:37:24.602Z,0.40
2022-10-15T15:40:26.888Z,0.30
2022-10-15T15:43:28.461Z,0.30
2022-10-15T15:46:30.104Z,0.28
2022-10-15T15:49:31.614Z,0.30
2022-10-15T15:52:36.148Z,0.20
2022-10-15T15:55:38.986Z,0.30
2022-10-15T15:58:40.525Z,0.22
2022-10-15T16:01:42.129Z,0.30
2022-10-15T16:04:45.480Z,0.20
2022-10-15T16:07:47.041Z,0.30
2022-10-15T16:10:48.557Z,0.20
2022-10-15T16:13:50.179Z,0.30
2022-10-15T16:16:51.725Z,0.20
2022-10-15T16:19:53.275Z,0.20
2022-10-15T16:22:54.863Z,0.20
2022-10-15T16:25:57.597Z,0.25
2022-10-15T16:28:59.169Z,0.20
2022-10-15T16:32:00.725Z,0.20
2022-10-15T16:35:02.341Z,0.20
2022-10-15T16:38:03.920Z,0.30
2022-10-15T16:41:05.684Z,0.20
2022-10-15T16:44:07.595Z,0.20
2022-10-15T16:47:09.110Z,0.20
2022-10-15T16:50:10.721Z,0.17
2022-10-15T16:53:12.248Z,0.30
2022-10-15T16:56:18.300Z,0.20
2022-10-15T16:59:20.485Z,0.20
2022-10-15T17:02:22.081Z,0.15
2022-10-15T17:05:23.797Z,0.20
2022-10-15T17:08:33.304Z,0.15
2022-10-15T17:11:40.113Z,0.20
2022-10-15T17:14:41.704Z,0.20
2022-10-15T17:17:43.268Z,0.20
2022-10-15T17:20:46.560Z,0.10
2022-10-15T17:23:50.385Z,0.20
2022-10-15T17:26:51.979Z,0.20
2022-10-15T17:29:53.529Z,0.20
2022-10-15T17:32:55.127Z,0.20
2022-10-15T17:35:56.643Z,0.10
2022-10-15T17:38:59.387Z,0.20
2022-10-15T17:42:00.963Z,0.20
2022-10-15T17:45:02.642Z,0.10
2022-10-15T17:48:04.258Z,0.10
2022-10-15T17:51:07.767Z,0.10
2022-10-15T17:54:09.368Z,0.10
2022-10-15T17:57:10.894Z,0.17
2022-10-15T18:00:13.008Z,0.17
2022-10-15T18:03:14.515Z,0.20
2022-10-15T18:06:18.295Z,0.10
2022-10-15T18:09:19.836Z,0.10
2022-10-15T18:12:21.367Z,0.20
2022-10-15T18:15:23.372Z,0.10
2022-10-15T18:18:26.213Z,0.13
2022-10-15T18:21:28.523Z,0.20
2022-10-15T18:24:30.053Z,0.10
2022-10-15T18:27:31.619Z,0.10
2022-10-15T18:30:38.184Z,0.20
2022-10-15T18:33:42.913Z,0.10
2022-10-15T18:36:46.697Z,0.15
2022-10-15T18:39:48.267Z,0.10
2022-10-15T18:42:49.807Z,0.10
2022-10-15T18:45:51.342Z,0.20
2022-10-15T18:48:52.893Z,0.20
2022-10-15T18:51:55.438Z,0.20
2022-10-15T18:54:57.046Z,0.20
2022-10-15T18:58:01.884Z,0.20
2022-10-15T19:01:22.282Z,0.15
2022-10-15T19:04:26.953Z,0.10
2022-10-15T19:07:31.606Z,0.10
2022-10-15T19:10:33.368Z,0.17
2022-10-15T19:13:36.650Z,0.10
2022-10-15T19:16:38.916Z,0.17
2022-10-15T19:19:40.496Z,0.20
2022-10-15T19:22:42.084Z,0.10
2022-10-15T19:25:43.694Z,0.10
2022-10-15T19:28:46.815Z,0.10
2022-10-15T19:31:49.908Z,0.20
2022-10-15T19:34:51.508Z,0.10
2022-10-15T19:37:53.064Z,0.20
2022-10-15T19:40:54.915Z,0.20
2022-10-15T19:43:56.511Z,0.20
2022-10-15T19:46:58.091Z,0.20
2022-10-15T19:49:59.597Z,0.13
2022-10-15T19:53:01.164Z,0.13
2022-10-15T19:56:06.128Z,0.10
2022-10-15T19:59:07.805Z,0.10
2022-10-15T20:02:12.031Z,0.10
2022-10-15T20:05:13.604Z,0.10
2022-10-15T20:08:16.112Z,0.10
2022-10-15T20:11:19.091Z,0.20
2022-10-15T20:14:20.629Z,0.10
2022-10-15T20:17:22.658Z,0.10
2022-10-15T20:20:24.377Z,0.10
2022-10-15T20:23:26.557Z,0.20
2022-10-15T20:26:28.183Z,0.10
2022-10-15T20:29:29.737Z,0.10
2022-10-15T20:32:35.323Z,0.10
2022-10-15T20:35:38.257Z,0.20
2022-10-15T20:38:40.209Z,0.10
2022-10-15T20:41:41.734Z,0.15
2022-10-15T20:44:43.260Z,0.10
2022-10-15T20:47:50.143Z,0.13
2022-10-15T20:50:53.445Z,0.15
2022-10-15T20:53:55.688Z,0.20
2022-10-15T20:56:57.400Z,0.13
2022-10-15T20:59:59.068Z,0.20
2022-10-15T21:03:00.644Z,0.20
2022-10-15T21:06:02.247Z,0.10
2022-10-15T21:09:03.992Z,0.20
2022-10-15T21:12:06.014Z,0.20
2022-10-15T21:15:07.960Z,0.10
2022-10-15T21:18:09.524Z,0.10
2022-10-15T21:21:13.223Z,0.10
2022-10-15T21:24:15.137Z,0.10
2022-10-15T21:27:16.730Z,0.20
2022-10-15T21:30:18.300Z,0.10
2022-10-15T21:33:19.872Z,0.10
2022-10-15T21:36:26.999Z,0.15
2022-10-15T21:39:28.637Z,0.10
2022-10-15T21:42:30.892Z,0.10
2022-10-15T21:45:32.438Z,0.20
2022-10-15T21:48:36.611Z,0.10
2022-10-15T21:51:38.277Z,0.10
2022-10-15T21:54:39.942Z,0.10
2022-10-15T21:57:41.492Z,0.20
2022-10-15T22:00:43.037Z,0.10
2022-10-15T22:03:45.307Z,0.10
2022-10-15T22:06:47.315Z,0.20
2022-10-15T22:09:48.913Z,0.10
2022-10-15T22:12:52.405Z,0.20
2022-10-15T22:15:53.928Z,0.20
2022-10-15T22:18:57.214Z,0.10
2022-10-15T22:21:58.787Z,0.10
2022-10-15T22:25:00.355Z,0.17
2022-10-15T22:28:01.877Z,0.10
2022-10-15T22:31:05.183Z,0.10
2022-10-15T22:34:06.711Z,0.10
2022-10-15T22:37:08.291Z,0.10
2022-10-15T22:40:11.980Z,0.20
2022-10-15T22:43:13.668Z,0.20
2022-10-15T22:46:15.196Z,0.15
2022-10-15T22:49:19.741Z,0.15
2022-10-15T22:52:21.278Z,0.13
2022-10-15T22:55:22.797Z,0.13
2022-10-15T22:58:25.564Z,0.10
2022-10-15T23:01:29.576Z,0.30
2022-10-15T23:04:31.214Z,0.10
2022-10-15T23:07:32.725Z,0.10
2022-10-15T23:10:34.297Z,0.10
2022-10-15T23:13:35.917Z,0.10
2022-10-15T23:16:45.760Z,0.10
2022-10-15T23:19:48.469Z,0.17
2022-10-15T23:22:49.951Z,0.10
2022-10-15T23:25:51.503Z,0.10
2022-10-15T23:28:56.199Z,0.20
2022-10-15T23:31:57.795Z,0.10
2022-10-15T23:34:59.351Z,0.20
2022-10-15T23:38:00.875Z,0.10
2022-10-15T23:41:04.832Z,0.10
2022-10-15T23:44:06.517Z,0.10
2022-10-15T23:47:08.300Z,0.10
2022-10-15T23:50:09.856Z,0.10
2022-10-15T23:53:11.443Z,0.10
2022-10-15T23:56:13.365Z,0.10
2022-10-15T23:59:17.145Z,0.10
